Time;durP1;ratioP1;P1;durP2;ratioP2;P2;SDS_P1;SDS_P2;PMS_P1;PMS_P2;Temp;Humidity;BMP_temperature;BMP_pressure;BME280_temperature;BME280_humidity;BME280_pressure;Samples;Min_cycle;Max_cycle;Signal;HPM_P1;HPM_P2
2019/04/08 00:01:17;;;;;;;14.6;11.2;;;;;;;9.36;82.21094;929.2194;;;;
2019/04/08 00:03:42;;;;;;;17.1;12.1;;;;;;;9.22;83.48242;929.3314;;;;
2019/04/08 00:06:08;;;;;;;14.2;10.1;;;;;;;8.84;83.63477;929.2354;;;;
2019/04/08 00:08:33;;;;;;;14.4;11;;;;;;;8.78;84.80762;929.2366;;;;
2019/04/08 00:10:58;;;;;;;13.4;10.2;;;;;;;8.88;84.17871;929.2823;;;;
2019/04/08 00:13:23;;;;;;;13.2;10;;;;;;;9.2;82.95605;929.1978;;;;
2019/04/08 00:15:48;;;;;;;13.7;10.3;;;;;;;9.36;82.4502;929.2067;;;;
2019/04/08 00:18:13;;;;;;;13.1;9.5;;;;;;;9.4;80.72754;929.2701;;;;
2019/04/08 00:20:38;;;;;;;12.3;9.8;;;;;;;9.13;82.95313;929.2899;;;;
2019/04/08 00:23:03;;;;;;;14.5;10.8;;;;;;;8.75;85.07324;929.3334;;;;
2019/04/08 00:25:31;;;;;;;14.9;10.7;;;;;;;8.89;84.94238;929.3188;;;;
2019/04/08 00:27:53;;;;;;;13;9.9;;;;;;;9.04;84.14063;929.3463;;;;
2019/04/08 00:30:18;;;;;;;14.4;9.4;;;;;;;8.91;84.09082;929.3808;;;;
2019/04/08 00:32:45;;;;;;;11;9.1;;;;;;;9.22;83.08398;929.4458;;;;
2019/04/08 00:35:10;;;;;;;10.7;7.9;;;;;;;9.28;81.79688;929.4061;;;;
2019/04/08 00:37:35;;;;;;;11.6;8.6;;;;;;;9.46;81.39844;929.3793;;;;
2019/04/08 00:40:00;;;;;;;11.5;8.2;;;;;;;9.17;81.69727;929.4256;;;;
2019/04/08 00:42:26;;;;;;;8.9;6.5;;;;;;;9.1;80.4668;929.5003;;;;
2019/04/08 00:44:51;;;;;;;8.7;6.5;;;;;;;9.07;81.20215;929.4526;;;;
2019/04/08 00:47:16;;;;;;;8.1;6.4;;;;;;;9.41;80.4541;929.4648;;;;
2019/04/08 00:49:41;;;;;;;8.5;6.4;;;;;;;9.34;80.53223;929.4593;;;;
2019/04/08 00:52:07;;;;;;;9.3;6.6;;;;;;;8.95;81.75684;929.4189;;;;
2019/04/08 00:54:32;;;;;;;7.8;5.8;;;;;;;8.92;81.12598;929.3839;;;;
2019/04/08 00:56:58;;;;;;;10.6;6.4;;;;;;;8.96;80.89551;929.4594;;;;
2019/04/08 00:59:27;;;;;;;9;6.5;;;;;;;9.16;81.11426;929.5281;;;;
2019/04/08 01:01:51;;;;;;;7.8;6.1;;;;;;;9.1;80.61523;929.6147;;;;
2019/04/08 01:04:14;;;;;;;8.6;6;;;;;;;9.29;80.72852;929.5872;;;;
2019/04/08 01:06:41;;;;;;;6.6;5.3;;;;;;;9.14;80.5293;929.6067;;;;
2019/04/08 01:09:06;;;;;;;6.6;5.3;;;;;;;8.97;81.64746;929.5221;;;;
2019/04/08 01:11:31;;;;;;;8.8;5.7;;;;;;;8.95;81.34668;929.6094;;;;
2019/04/08 01:13:55;;;;;;;7.3;5.4;;;;;;;8.7;81.99414;929.55;;;;
2019/04/08 01:16:21;;;;;;;9.2;6.3;;;;;;;8.78;82.50879;929.6262;;;;
2019/04/08 01:18:46;;;;;;;8.8;6;;;;;;;8.72;82.31836;929.6786;;;;
2019/04/08 01:21:13;;;;;;;8.4;5.6;;;;;;;8.64;82.8916;929.7213;;;;
2019/04/08 01:23:36;;;;;;;8;5.7;;;;;;;8.97;82.3877;929.6959;;;;
2019/04/08 01:26:01;;;;;;;6.2;5;;;;;;;8.79;82.64844;929.693;;;;
2019/04/08 01:28:27;;;;;;;7.9;5.2;;;;;;;8.88;82.4834;929.6926;;;;
2019/04/08 01:30:52;;;;;;;8.4;5.4;;;;;;;9.26;81.71387;929.7214;;;;
2019/04/08 01:33:17;;;;;;;7;4.3;;;;;;;9.18;81.20898;929.6997;;;;
2019/04/08 01:35:42;;;;;;;5.9;4.2;;;;;;;9.25;80.47168;929.6761;;;;
2019/04/08 01:38:07;;;;;;;8.2;4.9;;;;;;;9.5;80.05176;929.6923;;;;
2019/04/08 01:40:32;;;;;;;6.6;4.3;;;;;;;9.45;79.46191;929.6931;;;;
2019/04/08 01:42:58;;;;;;;7;4.4;;;;;;;9.47;80.0332;929.7297;;;;
2019/04/08 01:45:23;;;;;;;9.5;5.5;;;;;;;9.5;81.38379;929.7265;;;;
2019/04/08 01:47:49;;;;;;;6.7;4.2;;;;;;;9.32;80.62109;929.7278;;;;
2019/04/08 01:50:15;;;;;;;9.5;4.7;;;;;;;9.65;80.24902;929.7361;;;;
2019/04/08 01:52:40;;;;;;;5.9;4.4;;;;;;;9.73;80.01563;929.7615;;;;
2019/04/08 01:55:07;;;;;;;5.3;3.7;;;;;;;9.68;78.85449;929.7457;;;;
2019/04/08 01:57:32;;;;;;;6.5;4.6;;;;;;;9.87;78.63867;929.7894;;;;
2019/04/08 01:59:57;;;;;;;5.4;4.4;;;;;;;9.91;79.35352;929.7385;;;;
2019/04/08 02:02:23;;;;;;;5.9;4.2;;;;;;;9.75;80.13086;929.7178;;;;
2019/04/08 02:04:48;;;;;;;8.6;4.1;;;;;;;9.43;81.93066;929.7758;;;;
2019/04/08 02:07:13;;;;;;;5.2;4;;;;;;;9.27;80.74805;929.7587;;;;
2019/04/08 02:09:38;;;;;;;4.9;3.2;;;;;;;9.24;80.23047;929.6769;;;;
2019/04/08 02:12:03;;;;;;;5.1;3.5;;;;;;;9.45;79.31445;929.8075;;;;
2019/04/08 02:14:28;;;;;;;5.7;4.2;;;;;;;9.59;80.20508;929.7511;;;;
2019/04/08 02:16:53;;;;;;;5.7;4;;;;;;;9.71;80.0791;929.7385;;;;
2019/04/08 02:19:18;;;;;;;4.7;3.2;;;;;;;9.6;79.40918;929.7709;;;;
2019/04/08 02:21:44;;;;;;;7.6;3.5;;;;;;;9.46;79.65625;929.7559;;;;
2019/04/08 02:24:09;;;;;;;6.3;3.3;;;;;;;9.56;80.3252;929.6986;;;;
2019/04/08 02:26:34;;;;;;;4.8;3.2;;;;;;;9.68;78.02246;929.7417;;;;
2019/04/08 02:28:59;;;;;;;5.5;3.5;;;;;;;9.77;79.0293;929.6987;;;;
2019/04/08 02:31:24;;;;;;;7.2;3.7;;;;;;;9.76;79.29102;929.6653;;;;
2019/04/08 02:33:49;;;;;;;5.3;3.7;;;;;;;9.96;78.71191;929.7972;;;;
2019/04/08 02:36:14;;;;;;;4.5;3.7;;;;;;;10;79.08301;929.704;;;;
2019/04/08 02:38:39;;;;;;;5.8;3.7;;;;;;;9.64;79.67773;929.7458;;;;
2019/04/08 02:41:05;;;;;;;5.6;3.7;;;;;;;9.64;79.76953;929.8228;;;;
2019/04/08 02:43:29;;;;;;;6.6;4.1;;;;;;;9.8;77.79297;929.856;;;;
2019/04/08 02:45:55;;;;;;;5.7;3.8;;;;;;;9.4;80.53418;929.8803;;;;
2019/04/08 02:48:20;;;;;;;3.7;1.3;;;;;;;9.08;78.84668;929.8497;;;;
2019/04/08 02:50:45;;;;;;;2.9;1.3;;;;;;;8.89;80.15332;929.8689;;;;
2019/04/08 02:53:10;;;;;;;2.8;1.3;;;;;;;8.93;80.91309;929.8182;;;;
2019/04/08 02:55:35;;;;;;;2.1;1.5;;;;;;;9.42;78.90918;929.8234;;;;
2019/04/08 02:58:01;;;;;;;2.6;1.4;;;;;;;9.48;78.76074;929.8473;;;;
2019/04/08 03:00:26;;;;;;;3.9;1.8;;;;;;;9.56;78.59375;929.8981;;;;
2019/04/08 03:02:51;;;;;;;2.8;1.5;;;;;;;9.24;79.25195;929.897;;;;
2019/04/08 03:05:16;;;;;;;4.5;2.5;;;;;;;9.32;80.17773;929.8636;;;;
2019/04/08 03:07:41;;;;;;;4.5;3;;;;;;;9.18;81.9375;929.8013;;;;
2019/04/08 03:10:08;;;;;;;6;3.4;;;;;;;9.1;82.75293;929.806;;;;
2019/04/08 03:12:33;;;;;;;5.2;3.9;;;;;;;9.2;82.35059;929.787;;;;
2019/04/08 03:14:58;;;;;;;5.1;3.6;;;;;;;9.04;82.90137;929.8369;;;;
2019/04/08 03:17:23;;;;;;;5.1;3.4;;;;;;;8.95;83.4873;929.8167;;;;
2019/04/08 03:19:49;;;;;;;5;3.2;;;;;;;9.21;82.11328;929.7902;;;;
2019/04/08 03:22:14;;;;;;;4.4;2.7;;;;;;;9.2;81.28125;929.8212;;;;
2019/04/08 03:24:39;;;;;;;4.5;2.9;;;;;;;9.04;82.35352;929.8885;;;;
2019/04/08 03:27:04;;;;;;;4.7;3.2;;;;;;;8.91;83.42383;929.8753;;;;
2019/04/08 03:29:29;;;;;;;5.1;3.3;;;;;;;8.82;83.72266;929.8767;;;;
2019/04/08 03:31:54;;;;;;;5.4;3.6;;;;;;;8.61;84.77148;929.9144;;;;
2019/04/08 03:34:19;;;;;;;4.8;3.6;;;;;;;8.91;83.12793;929.9135;;;;
2019/04/08 03:36:44;;;;;;;4.6;3.6;;;;;;;8.93;83.2334;929.9453;;;;
2019/04/08 03:39:09;;;;;;;5.1;3.6;;;;;;;9.14;82.10156;929.945;;;;
2019/04/08 03:41:34;;;;;;;4.7;3.6;;;;;;;9.34;81.41016;929.9885;;;;
2019/04/08 03:43:59;;;;;;;7;3.9;;;;;;;9.34;81.75195;930.0266;;;;
2019/04/08 03:46:27;;;;;;;7;4.1;;;;;;;9.4;81.29688;930.0964;;;;
2019/04/08 03:48:50;;;;;;;4.8;4.2;;;;;;;9.46;81.3418;930.1627;;;;
2019/04/08 03:51:15;;;;;;;6.7;4.2;;;;;;;9.34;81.46777;930.1242;;;;
2019/04/08 03:53:41;;;;;;;7.5;4.3;;;;;;;9.4;81.18164;930.0845;;;;
2019/04/08 03:56:05;;;;;;;5;4;;;;;;;9.36;80.62793;930.2108;;;;
2019/04/08 03:58:31;;;;;;;4.1;3.1;;;;;;;9.28;80.39844;930.2529;;;;
2019/04/08 04:02:30;;;;;;;5.3;4.1;;;;;;;9.45;80.57715;930.2739;;;;
2019/04/08 04:07:26;;;;;;;7.1;4;;;;;;;9.52;80.89648;930.2462;;;;
2019/04/08 04:09:45;;;;;;;4.8;3.7;;;;;;;9.66;79.74023;930.2989;;;;
2019/04/08 04:12:12;;;;;;;7.1;4.2;;;;;;;9.57;80.56641;930.3248;;;;
2019/04/08 04:14:35;;;;;;;5.2;3.9;;;;;;;9.29;81.88965;930.4006;;;;
2019/04/08 04:17:01;;;;;;;8.1;4.5;;;;;;;9.71;80.06934;930.3911;;;;
2019/04/08 04:19:26;;;;;;;5.9;4.1;;;;;;;9.81;79.33203;930.3434;;;;
2019/04/08 04:21:51;;;;;;;6.9;3.9;;;;;;;9.53;80.4668;930.3296;;;;
2019/04/08 04:24:16;;;;;;;5.8;3.7;;;;;;;9.45;80.24805;930.4051;;;;
2019/04/08 04:26:41;;;;;;;5.8;3.4;;;;;;;9.37;80.39063;930.4603;;;;
2019/04/08 04:29:06;;;;;;;4.5;4;;;;;;;9.63;80.06348;930.4341;;;;
2019/04/08 04:31:31;;;;;;;5.4;3.6;;;;;;;9.52;80.15723;930.3812;;;;
2019/04/08 04:33:56;;;;;;;6.3;3.9;;;;;;;9.7;79.2334;930.4135;;;;
2019/04/08 04:36:22;;;;;;;6;3.9;;;;;;;9.5;80.44824;930.3923;;;;
2019/04/08 04:38:47;;;;;;;5.3;3.8;;;;;;;9.36;80.69629;930.3809;;;;
2019/04/08 04:41:12;;;;;;;5.1;4.5;;;;;;;9.6;79.4873;930.3646;;;;
2019/04/08 04:43:37;;;;;;;6.2;4.6;;;;;;;9.14;81.29297;930.4747;;;;
2019/04/08 04:46:02;;;;;;;5.5;3.3;;;;;;;9.35;80.55859;930.492;;;;
2019/04/08 04:48:27;;;;;;;3.9;3.3;;;;;;;9.13;81.50781;930.5223;;;;
2019/04/08 04:50:52;;;;;;;5.4;3;;;;;;;9.23;80.92383;930.6397;;;;
2019/04/08 04:53:17;;;;;;;3.9;2.5;;;;;;;9.24;80.46973;930.592;;;;
2019/04/08 04:55:45;;;;;;;3.4;2.3;;;;;;;9.47;80.14551;930.6116;;;;
2019/04/08 04:58:07;;;;;;;3.3;2.1;;;;;;;9.57;79.30176;930.5919;;;;
2019/04/08 05:00:32;;;;;;;3;2.3;;;;;;;9.71;78.84961;930.5946;;;;
2019/04/08 05:02:57;;;;;;;4.8;3.1;;;;;;;9.69;79.6084;930.6312;;;;
2019/04/08 05:05:23;;;;;;;4;3.6;;;;;;;9.67;79.55762;930.6669;;;;
2019/04/08 05:07:48;;;;;;;6.2;4.1;;;;;;;9.45;80.64551;930.6259;;;;
2019/04/08 05:10:13;;;;;;;5;4;;;;;;;9.1;82.60645;930.6906;;;;
2019/04/08 05:12:38;;;;;;;3.4;2.3;;;;;;;9.4;79.86035;930.8385;;;;
2019/04/08 05:15:03;;;;;;;3;1.9;;;;;;;9.51;78.21973;930.8231;;;;
2019/04/08 05:17:28;;;;;;;3.5;2;;;;;;;9.36;78.8291;930.8719;;;;
2019/04/08 05:19:53;;;;;;;3.4;2.2;;;;;;;9.5;79.41406;930.9256;;;;
2019/04/08 05:22:19;;;;;;;2.7;2.1;;;;;;;9.29;79.85156;930.9559;;;;
2019/04/08 05:24:44;;;;;;;3.2;2.2;;;;;;;9.46;79.28027;930.9852;;;;
2019/04/08 05:27:09;;;;;;;2.7;2;;;;;;;9.38;80.22363;931.0053;;;;
2019/04/08 05:29:35;;;;;;;2.7;1.9;;;;;;;9.5;79.26563;931.0106;;;;
2019/04/08 05:32:00;;;;;;;7.2;6.4;;;;;;;9.67;80.10449;931.0446;;;;
2019/04/08 05:34:30;;;;;;;7;4.8;;;;;;;9.61;80.44727;931.0421;;;;
2019/04/08 05:36:55;;;;;;;7.4;4.4;;;;;;;9.53;80.69434;931.067;;;;
2019/04/08 05:39:22;;;;;;;6;4.2;;;;;;;9.5;80.32324;931.0027;;;;
2019/04/08 05:41:47;;;;;;;5;4.4;;;;;;;9.49;80.25293;931.067;;;;
2019/04/08 05:44:12;;;;;;;7.6;4.7;;;;;;;9.4;80.34082;931.0117;;;;
2019/04/08 05:46:37;;;;;;;6;4.7;;;;;;;9.2;81.97656;931.1254;;;;
2019/04/08 05:49:16;;;;;;;7.9;5.6;;;;;;;9.3;81.9043;931.1959;;;;
2019/04/08 05:51:55;;;;;;;6.9;4.4;;;;;;;9.37;81.33594;931.1127;;;;
2019/04/08 05:54:06;;;;;;;6.9;4.9;;;;;;;9.4;81.63672;931.0761;;;;
2019/04/08 05:56:33;;;;;;;7.1;5.1;;;;;;;9.55;81.33398;931.1584;;;;
2019/04/08 06:01:19;;;;;;;7.5;6.1;;;;;;;9.69;81.08984;931.0842;;;;
2019/04/08 06:03:40;;;;;;;7.8;6.4;;;;;;;9.78;81.2207;931.1305;;;;
2019/04/08 06:08:30;;;;;;;6.6;4.5;;;;;;;9.68;79.91406;931.1916;;;;
2019/04/08 06:11:02;;;;;;;6.5;4.5;;;;;;;9.57;81.05469;931.2238;;;;
2019/04/08 06:13:29;;;;;;;8.8;4.3;;;;;;;9.47;81.38672;931.3237;;;;
2019/04/08 06:18:16;;;;;;;5.1;3.5;;;;;;;9.49;81.0166;931.2665;;;;
2019/04/08 06:20:39;;;;;;;5;3.3;;;;;;;9.41;81.22852;931.2445;;;;
2019/04/08 06:23:04;;;;;;;5.5;3.4;;;;;;;9.49;80.5498;931.296;;;;
2019/04/08 06:28:04;;;;;;;6.5;3.8;;;;;;;9.65;81.04688;931.2838;;;;
2019/04/08 06:30:19;;;;;;;5.8;3.5;;;;;;;9.79;80.45898;931.2648;;;;
2019/04/08 06:32:45;;;;;;;5;3.6;;;;;;;9.84;79.9668;931.2516;;;;
2019/04/08 06:35:23;;;;;;;4.5;3.5;;;;;;;9.78;78.49609;931.2823;;;;
2019/04/08 06:41:35;;;;;;;4.7;3.3;;;;;;;9.57;78.92383;931.2364;;;;
2019/04/08 06:43:28;;;;;;;4;2.9;;;;;;;9.82;78.81055;931.2365;;;;
2019/04/08 06:47:51;;;;;;;3.6;2.8;;;;;;;10.03;77.84473;931.2321;;;;
2019/04/08 06:50:31;;;;;;;4.5;2.9;;;;;;;9.9;76.8418;931.3089;;;;
2019/04/08 06:52:53;;;;;;;5.4;3.1;;;;;;;9.87;78.0459;931.2699;;;;
2019/04/08 06:55:12;;;;;;;3.8;3.1;;;;;;;9.96;78.58594;931.2731;;;;
2019/04/08 07:00:22;;;;;;;7.3;3;;;;;;;10.21;77.47852;931.2012;;;;
2019/04/08 07:06:05;;;;;;;4.2;2.9;;;;;;;10.17;77.07227;931.2305;;;;
2019/04/08 07:09:52;;;;;;;3.2;2.4;;;;;;;9.89;77.53613;931.2596;;;;
2019/04/08 07:12:12;;;;;;;2.8;2.1;;;;;;;9.87;76.0957;931.223;;;;
2019/04/08 07:14:48;;;;;;;3;2.4;;;;;;;10.05;78.68066;931.2726;;;;
2019/04/08 07:19:32;;;;;;;4;3;;;;;;;9.88;76.87109;931.2183;;;;
2019/04/08 07:22:01;;;;;;;3.5;3;;;;;;;9.83;77.41992;931.2405;;;;
2019/04/08 07:24:23;;;;;;;5.8;3.3;;;;;;;9.75;78.13867;931.2433;;;;
2019/04/08 07:26:59;;;;;;;6.6;3.4;;;;;;;9.93;77.92969;931.2166;;;;
2019/04/08 07:29:06;;;;;;;6.2;3;;;;;;;9.89;77.66113;931.2126;;;;
2019/04/08 07:34:04;;;;;;;5.1;3;;;;;;;9.96;80.91211;931.2644;;;;
2019/04/08 07:55:33;;;;;;;3.3;1.9;;;;;;;10.2;73.08398;931.2272;;;;
2019/04/08 07:57:51;;;;;;;4.7;2.7;;;;;;;9.97;75.70313;931.2254;;;;
2019/04/08 08:00:22;;;;;;;4.2;2.8;;;;;;;10.01;76.99805;931.2469;;;;
2019/04/08 08:02:50;;;;;;;5.1;3.3;;;;;;;10.38;77.05273;931.2213;;;;
2019/04/08 08:05:24;;;;;;;3.5;2.5;;;;;;;10.74;72.65039;931.1669;;;;
2019/04/08 08:11:09;;;;;;;4.8;2.6;;;;;;;10.82;73.24512;931.0865;;;;
2019/04/08 08:13:37;;;;;;;4.3;2.5;;;;;;;11.09;73.34961;931.1512;;;;
2019/04/08 08:16:12;;;;;;;3;2.4;;;;;;;11.47;71.44629;931.1267;;;;
2019/04/08 08:20:52;;;;;;;3.3;2.3;;;;;;;11.39;70.4834;931.1906;;;;
2019/04/08 08:23:19;;;;;;;2.5;2.2;;;;;;;11.59;70;931.177;;;;
2019/04/08 08:25:56;;;;;;;3;2.4;;;;;;;11.49;70.78418;931.1888;;;;
2019/04/08 08:29:03;;;;;;;3.8;2.3;;;;;;;11.12;70.67871;931.2028;;;;
2019/04/08 08:31:05;;;;;;;3.6;2.3;;;;;;;10.96;71.77246;931.1944;;;;
2019/04/08 08:33:24;;;;;;;3.6;2.1;;;;;;;10.65;72.95703;931.2141;;;;
2019/04/08 08:41:18;;;;;;;2.5;2.1;;;;;;;11.71;71.69238;931.1894;;;;
2019/04/08 08:55:13;;;;;;;2.6;1.8;;;;;;;11.34;69.28418;931.3279;;;;
2019/04/08 08:57:29;;;;;;;1.8;1.4;;;;;;;11.43;69.33301;931.2633;;;;
2019/04/08 09:00:03;;;;;;;2.4;1.4;;;;;;;11.2;70.56543;931.2455;;;;
2019/04/08 09:02:31;;;;;;;2;1.5;;;;;;;11.01;71.30176;931.2611;;;;
2019/04/08 09:04:52;;;;;;;2.3;1.8;;;;;;;11.46;69.9209;931.2089;;;;
2019/04/08 09:07:35;;;;;;;3.3;2.4;;;;;;;11.04;72.30078;931.3345;;;;
2019/04/08 09:15:01;;;;;;;3;2.5;;;;;;;11.35;70.81934;931.3272;;;;
2019/04/08 09:18:27;;;;;;;4.2;2.5;;;;;;;11.7;69.60547;931.2803;;;;
2019/04/08 09:20:13;;;;;;;3.2;2.5;;;;;;;11.74;70.49414;931.2498;;;;
2019/04/08 09:23:18;;;;;;;3.3;2.5;;;;;;;11.82;70.17578;931.2673;;;;
2019/04/08 09:24:53;;;;;;;2.8;2.2;;;;;;;12.04;69.17969;931.29;;;;
2019/04/08 09:27:51;;;;;;;3.2;2.3;;;;;;;11.99;68.56543;931.2693;;;;
2019/04/08 09:42:39;;;;;;;2.5;1.7;;;;;;;11.4;72.36035;931.3173;;;;
2019/04/08 09:44:18;;;;;;;4.1;1.7;;;;;;;12.14;67.99219;931.1975;;;;
2019/04/08 09:46:50;;;;;;;1.3;1.2;;;;;;;12.54;64.05078;931.2896;;;;
2019/04/08 09:49:24;;;;;;;2.5;1;;;;;;;12.56;64.19141;931.2447;;;;
2019/04/08 09:52:18;;;;;;;2.3;1.2;;;;;;;12.59;62.0625;931.2195;;;;
2019/04/08 09:57:02;;;;;;;0.9;0.7;;;;;;;12.79;61.04785;931.3456;;;;
2019/04/08 09:59:03;;;;;;;0.9;0.7;;;;;;;12.38;62.9502;931.3155;;;;
2019/04/08 10:01:29;;;;;;;2;1;;;;;;;12.5;66.35156;931.3323;;;;
2019/04/08 10:03:48;;;;;;;0.7;0.7;;;;;;;11.8;67.68652;931.3717;;;;
2019/04/08 10:09:13;;;;;;;1.3;1;;;;;;;12.01;67.00977;931.3914;;;;
2019/04/08 10:11:39;;;;;;;1.8;1.7;;;;;;;12;67.84375;931.3539;;;;
2019/04/08 10:13:59;;;;;;;3.9;2.3;;;;;;;11.91;68.71094;931.3848;;;;
2019/04/08 10:20:18;;;;;;;3.9;2.5;;;;;;;11.71;70.58008;931.3433;;;;
2019/04/08 10:31:16;;;;;;;3;2.7;;;;;;;11.82;71.43555;931.4373;;;;
2019/04/08 10:33:47;;;;;;;3.7;3.2;;;;;;;11.45;75.30859;931.4609;;;;
2019/04/08 10:36:16;;;;;;;5.4;3.1;;;;;;;11.38;74.82715;931.4514;;;;
2019/04/08 10:40:57;;;;;;;4.1;3;;;;;;;11.32;73.7998;931.4453;;;;
2019/04/08 10:43:14;;;;;;;3.8;3;;;;;;;11.64;71.94336;931.4481;;;;
2019/04/08 10:46:56;;;;;;;3.1;2.8;;;;;;;11.67;72.09668;931.4536;;;;
2019/04/08 10:50:39;;;;;;;4.1;3.3;;;;;;;11.54;71.29785;931.4803;;;;
2019/04/08 10:56:49;;;;;;;3.5;2.9;;;;;;;11.63;71.33398;931.4459;;;;
2019/04/08 11:01:31;;;;;;;3.9;3.1;;;;;;;11.5;72.54883;931.4766;;;;
2019/04/08 11:04:30;;;;;;;5;3.1;;;;;;;11.46;72.88477;931.4983;;;;
2019/04/08 11:06:41;;;;;;;4.3;3.1;;;;;;;11.72;72.05859;931.5506;;;;
2019/04/08 11:12:05;;;;;;;3.3;3;;;;;;;11.61;71.81152;931.5408;;;;
2019/04/08 11:14:27;;;;;;;3.1;2.7;;;;;;;11.16;72.7793;931.5596;;;;
2019/04/08 11:17:07;;;;;;;3.9;2.8;;;;;;;11.11;73.95898;931.5223;;;;
2019/04/08 11:19:19;;;;;;;3.5;3;;;;;;;11.44;72.5625;931.555;;;;
2019/04/08 11:33:07;;;;;;;3.9;3.5;;;;;;;11.3;73.16797;931.596;;;;
2019/04/08 11:46:24;;;;;;;4.2;3.8;;;;;;;10.57;75.51074;931.6264;;;;
2019/04/08 11:54:44;;;;;;;4.2;3.7;;;;;;;10.85;75.25098;931.4481;;;;
2019/04/08 11:58:23;;;;;;;3.4;3.1;;;;;;;11.11;72.55273;931.5527;;;;
2019/04/08 12:00:06;;;;;;;5.2;3.4;;;;;;;11.28;71.59668;931.5555;;;;
2019/04/08 12:05:18;;;;;;;3.7;3.3;;;;;;;11.15;72.67285;931.4975;;;;
2019/04/08 12:11:25;;;;;;;4.3;3.9;;;;;;;11.2;72.26855;931.5005;;;;
2019/04/08 12:14:00;;;;;;;4.5;4;;;;;;;11.46;71.92383;931.5111;;;;
2019/04/08 12:17:20;;;;;;;4.5;4.1;;;;;;;11.62;70.89941;931.4634;;;;
2019/04/08 12:21:14;;;;;;;4.1;3.7;;;;;;;11.68;69.63672;931.4272;;;;
2019/04/08 12:23:30;;;;;;;4.8;4;;;;;;;11.6;70.63086;931.3764;;;;
2019/04/08 12:26:25;;;;;;;5.2;4.4;;;;;;;11.34;70.93359;931.3958;;;;
2019/04/08 12:30:43;;;;;;;5.7;4.7;;;;;;;11.15;72.19238;931.4417;;;;
2019/04/08 12:35:32;;;;;;;7;4.6;;;;;;;11.35;70.53418;931.4539;;;;
2019/04/08 12:37:59;;;;;;;8.2;4.6;;;;;;;11.6;69.77246;931.4442;;;;
2019/04/08 12:40:40;;;;;;;5;4.5;;;;;;;11.45;70.49219;931.4561;;;;
2019/04/08 12:51:13;;;;;;;5.1;4.2;;;;;;;11.73;68.52344;931.3878;;;;
2019/04/08 12:53:50;;;;;;;5;4.5;;;;;;;11.84;68.67871;931.363;;;;
2019/04/08 12:59:27;;;;;;;5;4.5;;;;;;;11.78;69.0918;931.3564;;;;
2019/04/08 13:02:43;;;;;;;4.9;4.4;;;;;;;12.07;67.79785;931.4398;;;;
2019/04/08 13:07:05;;;;;;;5.6;4.7;;;;;;;12.24;68.45508;931.3702;;;;
2019/04/08 13:09:21;;;;;;;5.2;4.7;;;;;;;12.37;67.60352;931.3683;;;;
2019/04/08 13:11:52;;;;;;;6.9;4.8;;;;;;;11.94;69.7002;931.3823;;;;
2019/04/08 13:14:16;;;;;;;5.3;4.8;;;;;;;12.28;67.47461;931.3571;;;;
2019/04/08 13:16:45;;;;;;;6;4.7;;;;;;;12.31;67.14746;931.3496;;;;
2019/04/08 13:19:10;;;;;;;6.3;5;;;;;;;12.83;65.12695;931.2992;;;;
2019/04/08 13:21:38;;;;;;;5.8;4.6;;;;;;;12.9;64.77051;931.3513;;;;
2019/04/08 13:24:17;;;;;;;5.4;4.9;;;;;;;12.67;66.13672;931.3301;;;;
2019/04/08 13:26:48;;;;;;;5.1;4.6;;;;;;;12.73;65.04297;931.2897;;;;
2019/04/08 13:29:24;;;;;;;6.1;4.8;;;;;;;12.63;66.32422;931.2961;;;;
2019/04/08 13:31:53;;;;;;;6.1;5;;;;;;;11.92;69.31934;931.2484;;;;
2019/04/08 13:34:21;;;;;;;5.3;4.8;;;;;;;12.65;66.60254;931.2385;;;;
2019/04/08 13:36:51;;;;;;;5.7;4.8;;;;;;;12.91;65.18457;931.3111;;;;
2019/04/08 13:39:19;;;;;;;6.1;4.8;;;;;;;13.09;64.25977;931.2902;;;;
2019/04/08 13:41:47;;;;;;;4.9;4.4;;;;;;;13.06;63.81836;931.2514;;;;
2019/04/08 13:44:22;;;;;;;5.6;4.6;;;;;;;13.28;64.04492;931.2527;;;;
2019/04/08 13:46:55;;;;;;;5.4;4.6;;;;;;;13.74;59.43164;931.2151;;;;
2019/04/08 13:49:23;;;;;;;5.4;4.7;;;;;;;13.27;62.31934;931.2112;;;;
2019/04/08 13:51:58;;;;;;;5.8;4.4;;;;;;;13.63;60.77344;931.1686;;;;
2019/04/08 13:54:25;;;;;;;5.1;4.6;;;;;;;13.85;58.6416;931.1682;;;;
2019/04/08 13:56:57;;;;;;;7.2;4.7;;;;;;;13.84;59.02051;931.2163;;;;
2019/04/08 13:59:28;;;;;;;6.3;4.9;;;;;;;14.03;58.81543;931.1258;;;;
2019/04/08 14:01:58;;;;;;;5.4;4.7;;;;;;;14.22;57.75977;931.1454;;;;
2019/04/08 14:04:35;;;;;;;5.8;5;;;;;;;14.23;60.07422;931.1317;;;;
2019/04/08 14:07:09;;;;;;;6;4.8;;;;;;;14.5;57.95801;931.1423;;;;
2019/04/08 14:09:36;;;;;;;5.8;5.2;;;;;;;13.83;60.61914;931.2045;;;;
2019/04/08 14:12:07;;;;;;;6.5;4.4;;;;;;;13.43;61.25098;931.1926;;;;
2019/04/08 14:14:42;;;;;;;5.3;4.8;;;;;;;13.27;61.32129;931.1896;;;;
2019/04/08 14:17:35;;;;;;;7;5;;;;;;;13.46;61.85352;931.2266;;;;
2019/04/08 14:19:47;;;;;;;6.7;5;;;;;;;13.5;61.44434;931.2693;;;;
2019/04/08 14:22:16;;;;;;;6.1;5.5;;;;;;;13.48;61.66211;931.152;;;;
2019/04/08 14:24:49;;;;;;;6.9;5.5;;;;;;;13.67;61.18164;931.2281;;;;
2019/04/08 14:27:23;;;;;;;5.9;5.3;;;;;;;13.54;61.55469;931.2344;;;;
2019/04/08 14:29:53;;;;;;;6.8;5.3;;;;;;;13.07;63.63574;931.2209;;;;
2019/04/08 14:32:19;;;;;;;6.2;5.3;;;;;;;13.05;62.3584;931.2139;;;;
2019/04/08 14:34:49;;;;;;;8.3;5.6;;;;;;;12.59;64.81641;931.2195;;;;
2019/04/08 14:37:14;;;;;;;7.8;6.4;;;;;;;12.6;65.82617;931.257;;;;
2019/04/08 14:39:42;;;;;;;10;5.9;;;;;;;12.25;66.9541;931.1817;;;;
2019/04/08 14:42:05;;;;;;;7.8;5.9;;;;;;;12.23;67.16992;931.2561;;;;
2019/04/08 14:44:30;;;;;;;6.9;5.8;;;;;;;12.23;65.44922;931.2609;;;;
2019/04/08 14:46:55;;;;;;;7.4;6.1;;;;;;;12.72;64.43457;931.2561;;;;
2019/04/08 14:49:21;;;;;;;6.6;5.9;;;;;;;11.59;67.42676;931.3086;;;;
2019/04/08 14:51:46;;;;;;;6.9;6.2;;;;;;;11.33;70.50586;931.2954;;;;
2019/04/08 14:54:11;;;;;;;8.5;5.9;;;;;;;11.48;67.00586;931.2789;;;;
2019/04/08 14:56:36;;;;;;;8.1;6.4;;;;;;;11.88;67.83691;931.2734;;;;
2019/04/08 14:59:01;;;;;;;8.7;7;;;;;;;11.79;70.57227;931.2745;;;;
2019/04/08 15:01:26;;;;;;;9;6.3;;;;;;;11.77;69.95898;931.2942;;;;
2019/04/08 15:03:52;;;;;;;9.5;6.2;;;;;;;12.21;64.82813;931.2794;;;;
2019/04/08 15:06:17;;;;;;;8.1;6;;;;;;;12.31;64.53418;931.2347;;;;
2019/04/08 15:08:43;;;;;;;9.7;6.9;;;;;;;12.1;67.5957;931.2792;;;;
2019/04/08 15:11:08;;;;;;;9.6;7.3;;;;;;;11.97;68.60645;931.2464;;;;
2019/04/08 15:13:34;;;;;;;11.3;7.7;;;;;;;11.68;71.99512;931.3889;;;;
2019/04/08 15:15:59;;;;;;;7.8;6.1;;;;;;;11.7;71.33398;931.2932;;;;
2019/04/08 15:18:25;;;;;;;7.9;6.5;;;;;;;11.66;72.57422;931.3149;;;;
2019/04/08 15:20:50;;;;;;;8.8;6.7;;;;;;;11.5;72.19434;931.3187;;;;
2019/04/08 15:23:16;;;;;;;10.3;7.2;;;;;;;11.4;73.61914;931.3292;;;;
2019/04/08 15:25:41;;;;;;;9.5;6.7;;;;;;;11.17;73.69336;931.3588;;;;
2019/04/08 15:28:07;;;;;;;8.5;7.1;;;;;;;11.02;74.61816;931.2988;;;;
2019/04/08 15:30:32;;;;;;;8.1;7.1;;;;;;;11.09;73.92188;931.3719;;;;
2019/04/08 15:32:57;;;;;;;11.6;7.3;;;;;;;11.03;75.44043;931.3362;;;;
2019/04/08 15:35:22;;;;;;;8.7;7.2;;;;;;;11.19;74.91016;931.2974;;;;
2019/04/08 15:37:47;;;;;;;9.2;7.6;;;;;;;11.36;73.47559;931.3677;;;;
2019/04/08 15:40:12;;;;;;;8.1;7;;;;;;;11.11;75.68555;931.3439;;;;
2019/04/08 15:42:37;;;;;;;8.8;7.9;;;;;;;11.14;75.67871;931.2944;;;;
2019/04/08 15:45:07;;;;;;;9.5;7.7;;;;;;;11.18;75.68457;931.3412;;;;
2019/04/08 15:47:32;;;;;;;9.8;7.7;;;;;;;11.04;75.94727;931.3601;;;;
2019/04/08 15:49:58;;;;;;;9;7.9;;;;;;;11.07;76.29492;931.3488;;;;
2019/04/08 15:52:23;;;;;;;9.2;7.3;;;;;;;11.29;74.6875;931.3968;;;;
2019/04/08 15:54:48;;;;;;;10.1;7.9;;;;;;;11.13;75.59863;931.3796;;;;
2019/04/08 15:57:13;;;;;;;9.3;8;;;;;;;11.04;76.07227;931.3521;;;;
2019/04/08 15:59:39;;;;;;;9.2;8.1;;;;;;;11.04;76.2666;931.4278;;;;
2019/04/08 16:02:04;;;;;;;10.2;8.4;;;;;;;10.9;76.8584;931.4136;;;;
2019/04/08 16:04:29;;;;;;;10;8.1;;;;;;;10.93;76.17969;931.4056;;;;
2019/04/08 16:06:54;;;;;;;8.7;7.6;;;;;;;10.85;76.72461;931.4225;;;;
2019/04/08 16:09:19;;;;;;;12;9;;;;;;;10.99;76.09863;931.4372;;;;
2019/04/08 16:11:47;;;;;;;10.2;8.6;;;;;;;10.87;75.47168;931.4423;;;;
2019/04/08 16:14:10;;;;;;;13.5;8.6;;;;;;;10.85;76.80371;931.4998;;;;
2019/04/08 16:16:37;;;;;;;12.9;8.9;;;;;;;10.86;77.19531;931.4814;;;;
2019/04/08 16:19:02;;;;;;;10.3;8.6;;;;;;;10.81;77.3125;931.4736;;;;
2019/04/08 16:21:27;;;;;;;20.8;15.4;;;;;;;10.92;77.06738;931.5004;;;;
2019/04/08 16:23:52;;;;;;;15.9;13.5;;;;;;;10.89;77.43945;931.4526;;;;
2019/04/08 16:26:17;;;;;;;42.1;33;;;;;;;10.97;76.53027;931.5114;;;;
2019/04/08 16:28:43;;;;;;;26.9;20.5;;;;;;;11.01;75.98828;931.4949;;;;
2019/04/08 16:31:08;;;;;;;19.6;13.9;;;;;;;11.04;75.69531;931.4875;;;;
2019/04/08 16:33:33;;;;;;;16.1;11.8;;;;;;;11.12;76.47559;931.496;;;;
2019/04/08 16:35:58;;;;;;;14.4;10.9;;;;;;;11.04;76.75879;931.4924;;;;
2019/04/08 16:38:23;;;;;;;16;9.8;;;;;;;10.95;76.68555;931.5011;;;;
2019/04/08 16:40:48;;;;;;;12.5;9.9;;;;;;;10.8;76.28125;931.475;;;;
2019/04/08 16:43:14;;;;;;;27.5;22.4;;;;;;;10.89;77.46289;931.4567;;;;
2019/04/08 16:45:38;;;;;;;12.6;9.7;;;;;;;11;76.56738;931.4412;;;;
2019/04/08 16:48:04;;;;;;;10.9;9.6;;;;;;;10.73;76.55762;931.5539;;;;
2019/04/08 16:50:29;;;;;;;12.9;10.2;;;;;;;10.81;77.71289;931.4908;;;;
2019/04/08 16:52:54;;;;;;;14.7;11.3;;;;;;;10.86;77.57324;931.5364;;;;
2019/04/08 16:55:19;;;;;;;20.9;15.4;;;;;;;10.93;78.52246;931.4693;;;;
2019/04/08 16:57:44;;;;;;;15.8;12.2;;;;;;;10.41;80.77832;931.592;;;;
2019/04/08 17:00:09;;;;;;;16.4;12.5;;;;;;;10.32;81.79004;931.5206;;;;
2019/04/08 17:02:34;;;;;;;17;13;;;;;;;10.64;80.11426;931.5764;;;;
2019/04/08 17:05:00;;;;;;;15.5;13.1;;;;;;;10.93;79.03613;931.5673;;;;
2019/04/08 17:07:25;;;;;;;12.8;10.8;;;;;;;11.01;78.15918;931.5542;;;;
2019/04/08 17:09:51;;;;;;;14.5;11.7;;;;;;;10.94;78.4668;931.5538;;;;
2019/04/08 17:12:19;;;;;;;14.9;11.3;;;;;;;10.91;79.24902;931.557;;;;
2019/04/08 17:14:41;;;;;;;14;10.8;;;;;;;10.9;78.18555;931.553;;;;
2019/04/08 17:17:06;;;;;;;13.5;11.4;;;;;;;11.01;78.34277;931.563;;;;
2019/04/08 17:19:31;;;;;;;11.9;10.6;;;;;;;11.11;76.69141;931.6291;;;;
2019/04/08 17:21:56;;;;;;;11.5;9.7;;;;;;;10.6;78.80371;931.6956;;;;